Find Your NWS Forecast:
  Current Conditions
°F   
Feels like 0°F
Cold
 
High Today of: °F @ <#TtempTH>
Low Today of: °F @ <#TtempTL>

Humidity: <#hum> %  
Dew Point: °F  
Barometer: inHg  
Wind:  <#wdir> @
Gusting to: mph
 
Rain Today: in
Rain Yesterday: in
This Month: in
17516 Days without rain
 
Solar: <#SolarRad> W/m2
UV: <#UV>    None 
 
  Sun / Moon
Sunrise: 4:00pm
Sunset: 4:00pm
Moonrise: 4:00pm
Moonset: 4:00pm
 
  California Extremes
High
84°F at Chino Airport, CA
84°F at San Diego/Miramar Nas, CA
Low
8°F at Mammoth/June Lakes, CA
Precip
0.11in at Alturas, CA
 
 
  Fire Index
Fire Danger
 
 
  Oceanic Niño Index
Your browser does not support HTML5
Blue - La Niña , Red - El Niño
Last updated 46 hours 1 minutes ago
 
 

Nearby METAR Reports - Updated every 30 to 60 minutes

KMYV - Marysville, California, USA
Distance from station: SE 6mi, 9km
Updated: Sat, 16-Dec-2017 6:53pm PST
Clear
Clear
 Wind from NNW
Wind: NNW 13 mph , 20 km/h
Temperature: 52°F , 11°C
Dew Point: 27°F , -3°C
Humidity: 38%
Barometer: 29.98 inHg , 1015.2 hPa
Clouds: Clear
Visibility: 10 miles , 16 km
2017/12/17 02:53 KMYV 170253Z AUTO 34011KT 10SM CLR 11/M03 A2998 RMK AO2 SLP154 T01111033 51011
KCIC - Chico Municipal, California, USA
Distance from station: NNW 46mi, 74km
Updated: Sat, 16-Dec-2017 7:35pm PST
Clear
Clear
 Wind from N
Wind: N 21 mph , 33 km/h, Gust: 29 mph , 46 km/h
Temperature: 57°F , 14°C
Dew Point: 14°F , -10°C
Humidity: 18%
Barometer: 30.01 inHg , 1016.3 hPa
Clouds: Clear
Visibility: 10 miles , 16 km
2017/12/17 03:35 KCIC 170335Z AUTO 35018G25KT 10SM CLR 14/M10 A3001 RMK AO1
 
KOVE - Oroville, California, USA
Distance from station: NNE 30mi, 48km
Updated: Sat, 16-Dec-2017 6:53pm PST
Clear
Clear
 Wind from NNW
Wind: NNW 6 mph , 9 km/h
Temperature: 52°F , 11°C
Dew Point: 23°F , -5°C
Humidity: 32%
Barometer: 30.01 inHg , 1016.3 hPa
Clouds: Clear
Visibility: 10 miles , 16 km
2017/12/17 02:53 KOVE 170253Z AUTO 33005KT 10SM CLR 11/M05 A3001 RMK AO2 SLP164 T01111050 53010
KSIY - Montague/Siskiyo, California, USA
Distance from station: N 210mi, 337km
Updated: Sat, 16-Dec-2017 6:53pm PST
Clear
Clear
 Wind from calm
Wind: Calm
Temperature: 36°F , 2°C
Dew Point: 23°F , -5°C
Humidity: 60%
Barometer: 30.20 inHg , 1022.7 hPa
Clouds: Clear
Visibility: 10 miles , 16 km
2017/12/17 02:53 KSIY 170253Z AUTO 00000KT 10SM CLR 02/M05 A3020 RMK AO2 SLP257 T00171050 50004
 
KMHS - Mount Shasta, California, USA
Distance from station: N 174mi, 280km
Updated: Sat, 16-Dec-2017 6:56pm PST
Clear
Clear
 Wind from varies
Wind: varies 3 mph , 6 km/h
Temperature: 36°F , 2°C
Dew Point: 21°F , -6°C
Humidity: 56%
Barometer: 30.14 inHg , 1020.7 hPa
Clouds: Clear
Visibility: 10 miles , 16 km
2017/12/17 02:56 KMHS 170256Z AUTO VRB03KT 10SM CLR 02/M06 A3014 RMK AO2 SLP241 T00171061 51005
KO86 - Trinity Center, California, USA
Distance from station: NW 180mi, 289km
Updated: Sat, 16-Dec-2017 7:35pm PST
Clear
Clear
 Wind from WSW
Wind: WSW 3 mph , 6 km/h
Temperature: 39°F , 4°C
Dew Point: 25°F , -4°C
Humidity: 56%
Barometer: 30.12 inHg , 1020 hPa
Clouds: Clear
Visibility: 10 miles , 16 km
2017/12/17 03:35 KO86 170335Z AUTO 25003KT 10SM CLR 04/M04 A3012 RMK AO1
 
KRDD - Redding, California, USA
Distance from station: N 117mi, 188km
Updated: Sat, 16-Dec-2017 6:53pm PST
Clear
Clear
 Wind from N
Wind: N 12 mph , 19 km/h
Temperature: 55°F , 13°C
Dew Point: 12°F , -11°C
Humidity: 18%
Barometer: 30.10 inHg , 1019.3 hPa
Clouds: Clear
Visibility: 10 miles , 16 km
2017/12/17 02:53 KRDD 170253Z 35010KT 10SM CLR 13/M11 A3010 RMK AO2 SLP190 T01281106 51008
KRBL - Red Bluff, California, USA
Distance from station: N 86mi, 138km
Updated: Sat, 16-Dec-2017 6:54pm PST
Clear
Clear
 Wind from N
Wind: N 21 mph , 33 km/h, Gust: 32 mph , 52 km/h
Temperature: 55°F , 13°C
Dew Point: 18°F , -8°C
Humidity: 23%
Barometer: 30.06 inHg , 1017.9 hPa
Clouds: Clear
Visibility: 10 miles , 16 km
2017/12/17 02:54 KRBL 170254Z AUTO 35018G28KT 10SM CLR 13/M08 A3006 RMK AO2 PK WND 34029/0217 SLP180 T01281083 50003
 
KCEC - Crescent City, California, USA
Distance from station: NW 328mi, 527km
Updated: Sat, 16-Dec-2017 6:56pm PST
Clear
Clear
 Wind from N
Wind: N 14 mph , 22 km/h
Temperature: 54°F , 12°C
Dew Point: 41°F , 5°C
Humidity: 63%
Barometer: 30.22 inHg , 1023.4 hPa
Clouds: Clear
Visibility: 10 miles , 16 km
2017/12/17 02:56 KCEC 170256Z AUTO 35012KT 10SM CLR 12/05 A3022 RMK AO2 SLP233 T01170050 58003
KACV - Arcata/Eureka, California, USA
Distance from station: NW 256mi, 411km
Updated: Sat, 16-Dec-2017 6:53pm PST
Clear
Clear
 Wind from N
Wind: N 8 mph , 13 km/h
Temperature: 54°F , 12°C
Dew Point: 41°F , 5°C
Humidity: 63%
Barometer: 30.17 inHg , 1021.7 hPa
Clouds: Clear
Visibility: 10 miles , 16 km
2017/12/17 02:53 KACV 170253Z AUTO 01007KT 10SM CLR 12/05 A3017 RMK AO2 SLP221 T01170050 53001
 
KFOT - Fortuna, California, USA
Distance from station: NW 244mi, 392km
Updated: Sat, 16-Dec-2017 7:35pm PST
Clear
Clear
 Wind from N
Wind: N 17 mph , 28 km/h, Gust: 26 mph , 43 km/h
Temperature: 48°F , 9°C
Wind Chill: 42°F , 6°C
Dew Point: 41°F , 5°C
Humidity: 76%
Barometer: 30.15 inHg , 1021 hPa
Clouds: Clear
Visibility: 10 miles , 16 km
2017/12/17 03:35 KFOT 170335Z AUTO 36015G23KT 10SM CLR 09/05 A3015 RMK AO1
KAAT - Alturas, California, USA
Distance from station: NE 248mi, 399km
Updated: Sat, 16-Dec-2017 6:55pm PST
Clear
Clear
 Wind from NNE
Wind: NNE 5 mph , 7 km/h
Temperature: 27°F , -3°C
Wind Chill: 21°F , -6°C
Dew Point: 19°F , -7°C
Humidity: 74%
Barometer: 30.19 inHg , 1022.4 hPa
Clouds: Clear
Visibility: 10 miles , 16 km
2017/12/17 02:55 KAAT 170255Z AUTO 02004KT 10SM CLR M03/M07 A3019 RMK AO2 SLP247 T10281072 53015 TSNO $
 
KSVE - Susanville Muni, California, USA
Distance from station: NE 144mi, 231km
Updated: Sat, 16-Dec-2017 7:35pm PST
Clear
Clear
 Wind from ESE
Wind: ESE 3 mph , 6 km/h
Temperature: 30°F , -1°C
Dew Point: 18°F , -8°C
Humidity: 59%
Barometer: 30.19 inHg , 1022.4 hPa
Clouds: Clear
Visibility: 10 miles , 16 km
2017/12/17 03:35 KSVE 170335Z AUTO 11003KT 10SM CLR M01/M08 A3019 RMK AO2
KGOO - Grass Valley, California, USA
Distance from station: E 35mi, 56km
Updated: Sat, 16-Dec-2017 7:40pm PST
Clear
Clear
 Wind from WNW
Wind: WNW 5 mph , 7 km/h
Temperature: 43°F , 6°C
Wind Chill: 40°F , 4°C
Dew Point: 10°F , -12°C
Humidity: 26%
Barometer: 29.93 inHg , 1013.5 hPa
Clouds: Clear
Visibility: 10 miles , 16 km
2017/12/17 03:40 KGOO 170340Z AUTO 29004KT 10SM CLR 06/M12 A2993 RMK AO1
 
KBLU - Blue Canyon, California, USA
Distance from station: ENE 68mi, 109km
Updated: Sat, 16-Dec-2017 7:52pm PST
Clear
Clear
 Wind from NNE
Wind: NNE 12 mph , 19 km/h, Gust: 30 mph , 48 km/h
Temperature: 36°F , 2°C
Wind Chill: 28°F , -2°C
Dew Point: 7°F , -14°C
Humidity: 30%
Barometer: 29.90 inHg , 1012.5 hPa
Clouds: Clear
Visibility: 10 miles , 16 km
2017/12/17 03:52 KBLU 170352Z AUTO 03010G26KT 350V060 10SM CLR 02/M14 A2990 RMK AO2 PK WND 03038/0308 SLP129 T00171139 TSNO
KTRK - Truckee Tahoe, California, USA
Distance from station: ESE 93mi, 149km
Updated: Sat, 16-Dec-2017 7:35pm PST
Clear
Clear
 Wind from S
Wind: S 3 mph , 6 km/h
Temperature: 21°F , -6°C
Dew Point: 12°F , -11°C
Humidity: 68%
Barometer: 30.07 inHg , 1018.3 hPa
Clouds: Clear
Visibility: 10 miles , 16 km
2017/12/17 03:35 KTRK 170335Z AUTO 18003KT 10SM CLR M06/M11 A3007 RMK AO2